Dalton, New Hampshire
Current Conditions -  °F | °C
As of 2:52 AM on Monday 26 Jan 2015 (Local Time) from KHIE Reporting Station
Clear Clear  
Wind Chill: -24°   Ceiling: Unl
Heat Index: -24°   Visibility: 10mi
Dew Point: -27°   Wind: 0mph
Humidity: 78%   Direction: NA
Pressure: 30.04"   Gusts: NA
Location:  44.3374°N, 71.528°W
Report Text: KHIE 260752Z AUTO 00000KT 10SM CLR M24/M27 A3004 RMK AO2 SLP205 T12391267
Loading
Personal Weather Stations






























Interactive Weather Map New forecast layout! Learn more

10-Day Weather Forecast

Advertisements
Track Severe Weather on mobile